Hauptseite
METAR-TAF:

METAR-TAF

Flughäfen :

Flughafen Kuala Lumpur

Kuala Lumpur, Malaysia

Breite: 02-44N, Länge: 101-42E, Höhe: 21 m

Beobachtung

Neuester Wetterbericht von vor 44 Minuten, um 17:30 UTC
Wind 4 kt aus unterschiedlichen Richtungen
Temperatur 28°C
Luftfeuchtigkeit 79%
Luftdruck 1008 hPa
Sichtweite 10 km oder mehr
Leicht bewölkt in der Höhe von 3000 ft

METAR: WMKK 231730Z VRB04KT 9999 FEW030 28/24 Q1008 NOSIG

Zeit: 02:14 (18:14 UTC)

Prognose

Neuester Wetterbericht von vor 1 Stunde und 14 Minuten, um 17:00 UTC
Gültige Prognose vom 23 um 18 UTC bis 25 um 00 UTC
Wind 3 kt aus unterschiedlichen Richtungen
Sichtweite 10 km oder mehr
Leicht bewölkt in der Höhe von 3000 ft

TAF: WMKK 231700Z 2318/2500 VRB03KT 9999 FEW030

Wetterbeobachtungen und Prognosen von mehr als 4000 Flughäfen (METAR und TAF Bericht).

Die verfügbaren Stationen werden durch gelbe und rote Markierungen auf der Karte dargestellt.

Führen Sie die Maus auf sie, um den Namen der Station zu sehen.

Darauf klicken, um die Beobachtung von Wetterbeobachtungen und Prognosen zu sehen.

Um die Karte zu ändern : klicken Sie auf den grünen Tasten mit einem schwarzen Kreuz Zum Vergrößern, auf den grünen Button mit einem Gedankenstrich zu verkleinern, oder auf die grünen Pfeile für benachbarte Karten.


METAR-TAF: